createdAt,value
2018-11-14T00:00:28.927Z,86.93
2018-11-14T00:06:33.633Z,85.14
2018-11-14T00:12:38.421Z,86.09
2018-11-14T00:18:43.835Z,86.19
2018-11-14T00:24:48.543Z,85.05
2018-11-14T00:30:53.224Z,85.50
2018-11-14T00:36:58.964Z,84.68
2018-11-14T00:43:03.662Z,85.68
2018-11-14T00:49:08.721Z,84.92
2018-11-14T00:55:16.227Z,85.59
2018-11-14T01:01:20.935Z,86.15
2018-11-14T01:07:25.604Z,86.17
2018-11-14T01:13:30.289Z,85.28
2018-11-14T01:19:35.373Z,85.42
2018-11-14T01:25:40.087Z,85.57
2018-11-14T01:31:45.256Z,86.21
2018-11-14T01:37:50.064Z,84.83
2018-11-14T01:43:54.729Z,84.65
2018-11-14T01:49:59.619Z,84.63
2018-11-14T01:56:04.636Z,84.79
2018-11-14T02:02:09.675Z,84.17
2018-11-14T02:08:14.339Z,84.38
2018-11-14T02:14:19.304Z,83.88
2018-11-14T02:20:24.091Z,84.31
2018-11-14T02:26:28.752Z,84.32
2018-11-14T02:32:33.723Z,84.17
2018-11-14T02:38:38.412Z,84.49
2018-11-14T02:44:43.754Z,84.51
2018-11-14T02:50:48.478Z,84.54
2018-11-14T02:56:53.136Z,83.75
2018-11-14T03:02:58.375Z,84.54
2018-11-14T03:09:04.120Z,84.82
2018-11-14T03:15:12.189Z,84.86
2018-11-14T03:21:20.271Z,85.22
2018-11-14T03:27:25.054Z,84.90
2018-11-14T03:33:29.991Z,85.38
2018-11-14T03:39:34.640Z,85.19
2018-11-14T03:45:39.402Z,84.96
2018-11-14T03:51:44.492Z,85.06
2018-11-14T03:57:49.535Z,84.93
2018-11-14T04:03:54.292Z,85.52
2018-11-14T04:09:59.407Z,85.66
2018-11-14T04:16:04.485Z,85.55
2018-11-14T04:22:09.114Z,85.84
2018-11-14T04:28:13.732Z,85.62
2018-11-14T04:34:18.371Z,85.51
2018-11-14T04:40:24.125Z,85.92
2018-11-14T04:46:28.833Z,85.62
2018-11-14T04:52:33.474Z,86.33
2018-11-14T04:58:38.516Z,85.56
2018-11-14T05:04:43.261Z,86.35
2018-11-14T05:10:48.379Z,86.04
2018-11-14T05:16:53.013Z,86.11
2018-11-14T05:22:58.029Z,86.39
2018-11-14T05:29:03.145Z,86.50
2018-11-14T05:35:09.968Z,86.42
2018-11-14T05:41:14.637Z,85.43
2018-11-14T05:47:19.352Z,85.29
2018-11-14T05:53:24.586Z,85.89
2018-11-14T05:59:29.263Z,85.24
2018-11-14T06:05:33.967Z,85.99
2018-11-14T06:11:38.727Z,86.61
2018-11-14T06:17:44.753Z,86.22
2018-11-14T06:23:49.558Z,86.25
2018-11-14T06:29:54.159Z,86.60
2018-11-14T06:35:59.185Z,87.11
2018-11-14T06:42:03.947Z,87.28
2018-11-14T06:48:08.595Z,87.97
2018-11-14T06:54:13.335Z,87.59
2018-11-14T07:00:28.183Z,87.03
2018-11-14T07:06:32.848Z,86.68
2018-11-14T07:12:37.840Z,85.99
2018-11-14T07:18:42.537Z,86.95
2018-11-14T07:24:47.275Z,86.77
2018-11-14T07:30:51.933Z,86.13
2018-11-14T07:36:56.610Z,85.06
2018-11-14T07:43:01.243Z,85.78
2018-11-14T07:49:06.923Z,84.92
2018-11-14T07:55:12.345Z,84.66
2018-11-14T08:01:17.590Z,83.88
2018-11-14T08:07:23.009Z,82.65
2018-11-14T08:13:28.744Z,82.23
2018-11-14T08:19:33.435Z,81.29
2018-11-14T08:25:38.432Z,80.95
2018-11-14T08:31:43.129Z,79.79
2018-11-14T08:37:48.207Z,80.30
2018-11-14T08:43:53.716Z,78.73
2018-11-14T08:49:58.483Z,78.98
2018-11-14T08:56:04.082Z,78.57
2018-11-14T09:02:09.191Z,78.34
2018-11-14T09:08:13.865Z,79.15
2018-11-14T09:14:18.887Z,80.11
2018-11-14T09:20:24.881Z,79.88
2018-11-14T09:26:29.592Z,79.68
2018-11-14T09:32:34.228Z,80.26
2018-11-14T09:38:38.902Z,80.87
2018-11-14T09:44:43.610Z,80.53
2018-11-14T09:50:48.342Z,80.41
2018-11-14T09:56:53.435Z,79.82
2018-11-14T10:03:03.443Z,79.14
2018-11-14T10:09:12.091Z,79.77
2018-11-14T10:15:18.859Z,80.06
2018-11-14T10:21:23.685Z,79.80
2018-11-14T10:27:28.421Z,79.53
2018-11-14T10:33:33.108Z,77.57
2018-11-14T10:39:37.790Z,78.30
2018-11-14T10:45:42.536Z,78.13
2018-11-14T10:51:47.180Z,78.29
2018-11-14T10:57:52.907Z,78.12
2018-11-14T11:04:02.685Z,77.68
2018-11-14T11:10:13.382Z,78.21
2018-11-14T11:16:23.307Z,77.20
2018-11-14T11:22:27.965Z,76.57
2018-11-14T11:28:33.062Z,75.80
2018-11-14T11:34:37.741Z,76.65
2018-11-14T11:40:42.740Z,76.44
2018-11-14T11:46:47.436Z,75.99
2018-11-14T11:52:52.114Z,76.44
2018-11-14T11:58:57.051Z,75.07
2018-11-14T12:05:02.077Z,73.30
2018-11-14T12:11:07.275Z,73.23
2018-11-14T12:17:12.991Z,73.82
2018-11-14T12:23:17.699Z,72.85
2018-11-14T12:29:22.399Z,72.93
2018-11-14T12:35:27.193Z,72.32
2018-11-14T12:41:31.817Z,70.04
2018-11-14T12:47:36.879Z,69.76
2018-11-14T12:53:41.593Z,71.62
2018-11-14T12:59:46.729Z,71.27
2018-11-14T13:05:51.442Z,71.97
2018-11-14T13:11:56.289Z,71.52
2018-11-14T13:18:01.041Z,71.80
2018-11-14T13:24:06.115Z,71.79
2018-11-14T13:30:14.999Z,71.23
2018-11-14T13:36:19.723Z,71.57
2018-11-14T13:42:24.443Z,71.53
2018-11-14T13:48:29.863Z,71.84
2018-11-14T13:54:34.523Z,71.42
2018-11-14T14:00:39.220Z,69.08
2018-11-14T14:06:44.261Z,68.98
2018-11-14T14:12:50.478Z,66.44
2018-11-14T14:18:55.148Z,66.50
2018-11-14T14:25:00.510Z,66.19
2018-11-14T14:31:06.308Z,66.48
2018-11-14T14:37:11.149Z,67.38
2018-11-14T14:43:15.880Z,68.83
2018-11-14T14:49:20.559Z,69.27
2018-11-14T14:55:26.282Z,71.21
2018-11-14T15:01:31.068Z,72.98
2018-11-14T15:07:35.998Z,75.43
2018-11-14T15:13:40.933Z,76.68
2018-11-14T15:19:45.695Z,77.23
2018-11-14T15:25:50.518Z,79.25
2018-11-14T15:31:55.264Z,80.03
2018-11-14T15:38:01.124Z,80.30
2018-11-14T15:44:06.004Z,81.72
2018-11-14T15:50:13.898Z,82.78
2018-11-14T15:56:18.718Z,83.69
2018-11-14T16:02:24.153Z,84.48
2018-11-14T16:08:29.564Z,86.03
2018-11-14T16:14:34.329Z,85.09
2018-11-14T16:20:39.425Z,85.75
2018-11-14T16:26:44.334Z,85.98
2018-11-14T16:32:50.939Z,86.28
2018-11-14T16:38:55.667Z,87.21
2018-11-14T16:45:01.029Z,87.03
2018-11-14T16:51:05.892Z,87.46
2018-11-14T16:57:10.755Z,87.43
2018-11-14T17:03:15.446Z,87.11
2018-11-14T17:09:20.526Z,87.23
2018-11-14T17:15:26.534Z,86.59
2018-11-14T17:21:31.942Z,86.40
2018-11-14T17:27:37.364Z,85.86
2018-11-14T17:33:42.045Z,85.42
2018-11-14T17:39:46.790Z,85.40
2018-11-14T17:45:51.888Z,85.78
2018-11-14T17:51:56.683Z,85.24
2018-11-14T17:58:01.568Z,85.10
2018-11-14T18:04:06.335Z,85.32
2018-11-14T18:10:13.493Z,85.37
2018-11-14T18:16:18.175Z,85.31
2018-11-14T18:22:22.892Z,85.09
2018-11-14T18:28:27.568Z,85.41
2018-11-14T18:34:32.755Z,85.68
2018-11-14T18:40:38.135Z,86.45
2018-11-14T18:46:42.853Z,86.73
2018-11-14T18:52:48.085Z,86.44
2018-11-14T18:58:52.819Z,86.39
2018-11-14T19:04:57.532Z,87.55
2018-11-14T19:11:02.324Z,87.33
2018-11-14T19:17:07.163Z,87.62
2018-11-14T19:23:11.983Z,88.34
2018-11-14T19:29:16.767Z,88.41
2018-11-14T19:35:21.698Z,88.59
2018-11-14T19:41:26.414Z,88.75
2018-11-14T19:47:31.501Z,90.00
2018-11-14T19:53:36.192Z,89.51
2018-11-14T19:59:41.406Z,89.33
2018-11-14T20:05:46.192Z,90.16
2018-11-14T20:11:51.256Z,90.37
2018-11-14T20:17:55.988Z,90.67
2018-11-14T20:24:01.007Z,90.58
2018-11-14T20:30:15.957Z,89.80
2018-11-14T20:36:20.675Z,90.36
2018-11-14T20:42:26.339Z,90.31
2018-11-14T20:48:30.992Z,90.12
2018-11-14T20:54:35.693Z,89.72
2018-11-14T21:00:40.727Z,89.33
2018-11-14T21:06:45.506Z,89.42
2018-11-14T21:12:51.145Z,89.27
2018-11-14T21:18:55.951Z,89.71
2018-11-14T21:25:00.655Z,89.87
2018-11-14T21:31:06.139Z,90.86
2018-11-14T21:37:10.914Z,90.80
2018-11-14T21:43:16.070Z,90.86
2018-11-14T21:49:26.373Z,91.09
2018-11-14T21:55:31.088Z,90.74
2018-11-14T22:01:36.303Z,92.91
2018-11-14T22:07:40.968Z,91.51
2018-11-14T22:13:45.739Z,92.08
2018-11-14T22:19:50.388Z,91.96
2018-11-14T22:25:55.159Z,91.56
2018-11-14T22:32:00.619Z,91.80
2018-11-14T22:38:05.343Z,92.39
2018-11-14T22:44:10.805Z,93.05
2018-11-14T22:50:16.898Z,93.35
2018-11-14T22:56:21.999Z,93.46
2018-11-14T23:02:26.850Z,93.00
2018-11-14T23:08:31.940Z,92.83
2018-11-14T23:14:36.983Z,93.47
2018-11-14T23:20:42.413Z,93.61
2018-11-14T23:26:47.497Z,93.53
2018-11-14T23:32:53.489Z,93.02
2018-11-14T23:38:59.173Z,92.95
2018-11-14T23:45:04.089Z,91.68
2018-11-14T23:51:08.839Z,91.91
2018-11-14T23:57:13.946Z,92.07
